sensor_id;sensor_type;location;lat;lon;timestamp;P1;durP1;ratioP1;P2;durP2;ratioP2
19951;SDS011;10137;49.406;19.484;2023-04-01T00:02:12;1.57;;;1.13;;
19951;SDS011;10137;49.406;19.484;2023-04-01T00:04:39;1.83;;;1.20;;
19951;SDS011;10137;49.406;19.484;2023-04-01T00:07:08;1.90;;;1.17;;
19951;SDS011;10137;49.406;19.484;2023-04-01T00:09:35;2.10;;;1.77;;
19951;SDS011;10137;49.406;19.484;2023-04-01T00:12:03;2.33;;;1.30;;
19951;SDS011;10137;49.406;19.484;2023-04-01T00:14:31;2.50;;;1.20;;
19951;SDS011;10137;49.406;19.484;2023-04-01T00:16:58;3.37;;;1.17;;
19951;SDS011;10137;49.406;19.484;2023-04-01T00:19:25;1.97;;;1.10;;
19951;SDS011;10137;49.406;19.484;2023-04-01T00:21:52;1.30;;;1.20;;
19951;SDS011;10137;49.406;19.484;2023-04-01T00:24:20;1.63;;;1.23;;
19951;SDS011;10137;49.406;19.484;2023-04-01T00:26:48;1.50;;;1.17;;
19951;SDS011;10137;49.406;19.484;2023-04-01T00:29:15;1.70;;;1.20;;
19951;SDS011;10137;49.406;19.484;2023-04-01T00:31:42;2.17;;;1.10;;
19951;SDS011;10137;49.406;19.484;2023-04-01T00:34:10;3.17;;;1.70;;
19951;SDS011;10137;49.406;19.484;2023-04-01T00:36:37;2.07;;;1.43;;
19951;SDS011;10137;49.406;19.484;2023-04-01T00:39:04;1.60;;;1.40;;
19951;SDS011;10137;49.406;19.484;2023-04-01T00:41:33;1.60;;;1.30;;
19951;SDS011;10137;49.406;19.484;2023-04-01T00:44:16;1.87;;;1.20;;
19951;SDS011;10137;49.406;19.484;2023-04-01T00:46:45;2.17;;;1.27;;
19951;SDS011;10137;49.406;19.484;2023-04-01T00:49:13;2.73;;;1.23;;
19951;SDS011;10137;49.406;19.484;2023-04-01T00:51:42;2.00;;;1.50;;
19951;SDS011;10137;49.406;19.484;2023-04-01T00:54:11;1.60;;;1.10;;
19951;SDS011;10137;49.406;19.484;2023-04-01T00:56:43;1.97;;;1.33;;
19951;SDS011;10137;49.406;19.484;2023-04-01T00:59:16;1.30;;;1.20;;
19951;SDS011;10137;49.406;19.484;2023-04-01T01:01:47;2.33;;;1.63;;
19951;SDS011;10137;49.406;19.484;2023-04-01T01:04:21;2.70;;;1.97;;
19951;SDS011;10137;49.406;19.484;2023-04-01T01:06:51;1.50;;;1.20;;
19951;SDS011;10137;49.406;19.484;2023-04-01T01:09:31;1.73;;;1.30;;
19951;SDS011;10137;49.406;19.484;2023-04-01T01:12:10;1.83;;;1.30;;
19951;SDS011;10137;49.406;19.484;2023-04-01T01:14:49;3.23;;;1.40;;
19951;SDS011;10137;49.406;19.484;2023-04-01T01:17:25;1.60;;;1.40;;
19951;SDS011;10137;49.406;19.484;2023-04-01T01:20:21;1.83;;;1.40;;
19951;SDS011;10137;49.406;19.484;2023-04-01T01:26:30;3.47;;;1.30;;
19951;SDS011;10137;49.406;19.484;2023-04-01T01:32:35;1.50;;;1.20;;
19951;SDS011;10137;49.406;19.484;2023-04-01T01:35:20;2.10;;;1.37;;
19951;SDS011;10137;49.406;19.484;2023-04-01T01:37:51;2.63;;;1.60;;
19951;SDS011;10137;49.406;19.484;2023-04-01T01:40:21;2.47;;;1.70;;
19951;SDS011;10137;49.406;19.484;2023-04-01T01:42:50;2.00;;;1.63;;
19951;SDS011;10137;49.406;19.484;2023-04-01T01:45:20;2.73;;;1.90;;
19951;SDS011;10137;49.406;19.484;2023-04-01T01:47:50;6.13;;;2.13;;
19951;SDS011;10137;49.406;19.484;2023-04-01T01:50:21;6.83;;;2.67;;
19951;SDS011;10137;49.406;19.484;2023-04-01T01:52:50;2.77;;;2.13;;
19951;SDS011;10137;49.406;19.484;2023-04-01T01:55:25;5.03;;;2.00;;
19951;SDS011;10137;49.406;19.484;2023-04-01T01:57:54;3.37;;;1.90;;
19951;SDS011;10137;49.406;19.484;2023-04-01T02:00:25;2.90;;;1.83;;
19951;SDS011;10137;49.406;19.484;2023-04-01T02:02:53;5.67;;;1.73;;
19951;SDS011;10137;49.406;19.484;2023-04-01T02:05:23;2.10;;;1.70;;
19951;SDS011;10137;49.406;19.484;2023-04-01T02:07:53;2.03;;;1.37;;
19951;SDS011;10137;49.406;19.484;2023-04-01T02:10:24;2.80;;;1.60;;
19951;SDS011;10137;49.406;19.484;2023-04-01T02:12:53;2.87;;;1.43;;
19951;SDS011;10137;49.406;19.484;2023-04-01T02:15:25;3.73;;;1.53;;
19951;SDS011;10137;49.406;19.484;2023-04-01T02:17:55;2.93;;;1.40;;
19951;SDS011;10137;49.406;19.484;2023-04-01T02:20:25;3.00;;;1.57;;
19951;SDS011;10137;49.406;19.484;2023-04-01T02:22:55;3.53;;;1.10;;
19951;SDS011;10137;49.406;19.484;2023-04-01T02:25:25;1.80;;;1.30;;
19951;SDS011;10137;49.406;19.484;2023-04-01T02:27:54;2.07;;;1.40;;
19951;SDS011;10137;49.406;19.484;2023-04-01T02:30:24;5.03;;;2.00;;
19951;SDS011;10137;49.406;19.484;2023-04-01T02:32:55;2.30;;;1.53;;
19951;SDS011;10137;49.406;19.484;2023-04-01T02:35:24;2.70;;;1.60;;
19951;SDS011;10137;49.406;19.484;2023-04-01T02:37:53;2.13;;;1.60;;
19951;SDS011;10137;49.406;19.484;2023-04-01T02:40:22;1.90;;;1.40;;
19951;SDS011;10137;49.406;19.484;2023-04-01T02:42:49;1.73;;;1.30;;
19951;SDS011;10137;49.406;19.484;2023-04-01T02:45:17;1.40;;;1.30;;
19951;SDS011;10137;49.406;19.484;2023-04-01T02:47:44;2.23;;;1.40;;
19951;SDS011;10137;49.406;19.484;2023-04-01T02:50:11;6.40;;;1.57;;
19951;SDS011;10137;49.406;19.484;2023-04-01T02:52:40;3.90;;;2.03;;
19951;SDS011;10137;49.406;19.484;2023-04-01T02:55:07;2.83;;;1.67;;
19951;SDS011;10137;49.406;19.484;2023-04-01T02:57:35;2.77;;;1.93;;
19951;SDS011;10137;49.406;19.484;2023-04-01T03:00:02;3.53;;;1.80;;
19951;SDS011;10137;49.406;19.484;2023-04-01T03:02:30;4.20;;;2.03;;
19951;SDS011;10137;49.406;19.484;2023-04-01T03:04:57;3.77;;;1.83;;
19951;SDS011;10137;49.406;19.484;2023-04-01T03:07:25;6.83;;;1.93;;
19951;SDS011;10137;49.406;19.484;2023-04-01T03:09:53;4.37;;;1.80;;
19951;SDS011;10137;49.406;19.484;2023-04-01T03:12:20;3.83;;;1.90;;
19951;SDS011;10137;49.406;19.484;2023-04-01T03:14:48;3.43;;;1.70;;
19951;SDS011;10137;49.406;19.484;2023-04-01T03:17:15;3.07;;;2.00;;
19951;SDS011;10137;49.406;19.484;2023-04-01T03:19:42;2.73;;;1.70;;
19951;SDS011;10137;49.406;19.484;2023-04-01T03:22:09;5.17;;;2.00;;
19951;SDS011;10137;49.406;19.484;2023-04-01T03:24:37;5.10;;;2.03;;
19951;SDS011;10137;49.406;19.484;2023-04-01T03:27:06;3.47;;;2.03;;
19951;SDS011;10137;49.406;19.484;2023-04-01T03:29:33;2.57;;;1.80;;
19951;SDS011;10137;49.406;19.484;2023-04-01T03:32:01;1.87;;;1.50;;
19951;SDS011;10137;49.406;19.484;2023-04-01T03:34:28;6.30;;;2.07;;
19951;SDS011;10137;49.406;19.484;2023-04-01T03:36:56;1.70;;;1.40;;
19951;SDS011;10137;49.406;19.484;2023-04-01T03:39:23;5.33;;;2.50;;
19951;SDS011;10137;49.406;19.484;2023-04-01T03:41:50;4.93;;;2.40;;
19951;SDS011;10137;49.406;19.484;2023-04-01T03:44:18;3.57;;;2.00;;
19951;SDS011;10137;49.406;19.484;2023-04-01T03:46:46;5.27;;;2.37;;
19951;SDS011;10137;49.406;19.484;2023-04-01T03:49:13;7.90;;;2.97;;
19951;SDS011;10137;49.406;19.484;2023-04-01T03:51:41;6.43;;;2.43;;
19951;SDS011;10137;49.406;19.484;2023-04-01T03:54:09;3.83;;;2.20;;
19951;SDS011;10137;49.406;19.484;2023-04-01T03:56:37;4.30;;;2.40;;
19951;SDS011;10137;49.406;19.484;2023-04-01T03:59:06;3.27;;;2.20;;
19951;SDS011;10137;49.406;19.484;2023-04-01T04:01:35;3.33;;;2.27;;
19951;SDS011;10137;49.406;19.484;2023-04-01T04:04:02;3.23;;;2.30;;
19951;SDS011;10137;49.406;19.484;2023-04-01T04:06:30;4.63;;;2.70;;
19951;SDS011;10137;49.406;19.484;2023-04-01T04:08:57;3.83;;;2.10;;
19951;SDS011;10137;49.406;19.484;2023-04-01T04:11:24;3.67;;;2.13;;
19951;SDS011;10137;49.406;19.484;2023-04-01T04:13:51;5.33;;;2.00;;
19951;SDS011;10137;49.406;19.484;2023-04-01T04:16:19;3.43;;;2.20;;
19951;SDS011;10137;49.406;19.484;2023-04-01T04:18:47;4.30;;;2.50;;
19951;SDS011;10137;49.406;19.484;2023-04-01T04:21:16;4.20;;;2.60;;
19951;SDS011;10137;49.406;19.484;2023-04-01T04:23:43;4.57;;;2.43;;
19951;SDS011;10137;49.406;19.484;2023-04-01T04:26:10;6.23;;;2.50;;
19951;SDS011;10137;49.406;19.484;2023-04-01T04:28:39;5.77;;;2.30;;
19951;SDS011;10137;49.406;19.484;2023-04-01T04:31:06;4.83;;;2.37;;
19951;SDS011;10137;49.406;19.484;2023-04-01T04:33:33;5.10;;;2.90;;
19951;SDS011;10137;49.406;19.484;2023-04-01T04:36:02;7.70;;;3.27;;
19951;SDS011;10137;49.406;19.484;2023-04-01T04:38:30;6.03;;;3.00;;
19951;SDS011;10137;49.406;19.484;2023-04-01T04:40:57;6.77;;;3.73;;
19951;SDS011;10137;49.406;19.484;2023-04-01T04:43:25;5.23;;;3.23;;
19951;SDS011;10137;49.406;19.484;2023-04-01T04:45:52;8.37;;;4.40;;
19951;SDS011;10137;49.406;19.484;2023-04-01T04:48:19;9.83;;;6.47;;
19951;SDS011;10137;49.406;19.484;2023-04-01T04:50:47;14.07;;;8.27;;
19951;SDS011;10137;49.406;19.484;2023-04-01T04:53:16;10.60;;;6.77;;
19951;SDS011;10137;49.406;19.484;2023-04-01T04:55:45;10.23;;;7.20;;
19951;SDS011;10137;49.406;19.484;2023-04-01T04:58:13;11.03;;;6.10;;
19951;SDS011;10137;49.406;19.484;2023-04-01T05:00:40;9.57;;;4.30;;
19951;SDS011;10137;49.406;19.484;2023-04-01T05:03:07;7.13;;;3.87;;
19951;SDS011;10137;49.406;19.484;2023-04-01T05:05:34;5.60;;;3.30;;
19951;SDS011;10137;49.406;19.484;2023-04-01T05:08:02;7.07;;;3.37;;
19951;SDS011;10137;49.406;19.484;2023-04-01T05:10:31;5.40;;;3.60;;
19951;SDS011;10137;49.406;19.484;2023-04-01T05:12:58;6.20;;;3.23;;
19951;SDS011;10137;49.406;19.484;2023-04-01T05:15:26;5.63;;;2.73;;
19951;SDS011;10137;49.406;19.484;2023-04-01T05:17:53;4.87;;;2.63;;
19951;SDS011;10137;49.406;19.484;2023-04-01T05:20:20;4.83;;;2.30;;
19951;SDS011;10137;49.406;19.484;2023-04-01T05:22:47;4.53;;;2.40;;
19951;SDS011;10137;49.406;19.484;2023-04-01T05:25:15;5.80;;;2.17;;
19951;SDS011;10137;49.406;19.484;2023-04-01T05:27:44;5.23;;;2.23;;
19951;SDS011;10137;49.406;19.484;2023-04-01T05:30:11;4.77;;;2.70;;
19951;SDS011;10137;49.406;19.484;2023-04-01T05:32:38;6.00;;;2.50;;
19951;SDS011;10137;49.406;19.484;2023-04-01T05:35:05;5.20;;;2.77;;
19951;SDS011;10137;49.406;19.484;2023-04-01T05:37:33;5.83;;;2.43;;
19951;SDS011;10137;49.406;19.484;2023-04-01T05:40:00;5.03;;;2.73;;
19951;SDS011;10137;49.406;19.484;2023-04-01T05:42:28;5.23;;;2.60;;
19951;SDS011;10137;49.406;19.484;2023-04-01T05:44:57;3.97;;;2.40;;
19951;SDS011;10137;49.406;19.484;2023-04-01T05:47:24;4.10;;;2.17;;
19951;SDS011;10137;49.406;19.484;2023-04-01T05:49:52;5.60;;;2.50;;
19951;SDS011;10137;49.406;19.484;2023-04-01T05:52:20;3.77;;;2.23;;
19951;SDS011;10137;49.406;19.484;2023-04-01T05:54:47;5.70;;;2.07;;
19951;SDS011;10137;49.406;19.484;2023-04-01T05:57:14;3.53;;;2.47;;
19951;SDS011;10137;49.406;19.484;2023-04-01T05:59:41;3.93;;;2.40;;
19951;SDS011;10137;49.406;19.484;2023-04-01T06:02:10;4.40;;;2.73;;
19951;SDS011;10137;49.406;19.484;2023-04-01T06:04:37;4.43;;;2.37;;
19951;SDS011;10137;49.406;19.484;2023-04-01T06:07:10;4.40;;;2.20;;
19951;SDS011;10137;49.406;19.484;2023-04-01T06:09:38;3.83;;;1.83;;
19951;SDS011;10137;49.406;19.484;2023-04-01T06:12:14;3.47;;;2.27;;
19951;SDS011;10137;49.406;19.484;2023-04-01T06:15:01;3.23;;;1.70;;
19951;SDS011;10137;49.406;19.484;2023-04-01T06:17:43;4.93;;;2.00;;
19951;SDS011;10137;49.406;19.484;2023-04-01T06:20:29;4.37;;;2.00;;
19951;SDS011;10137;49.406;19.484;2023-04-01T06:23:09;2.37;;;1.60;;
19951;SDS011;10137;49.406;19.484;2023-04-01T06:25:58;2.83;;;1.70;;
19951;SDS011;10137;49.406;19.484;2023-04-01T06:28:40;3.30;;;1.80;;
19951;SDS011;10137;49.406;19.484;2023-04-01T06:31:19;2.40;;;1.70;;
19951;SDS011;10137;49.406;19.484;2023-04-01T06:34:08;3.47;;;2.00;;
19951;SDS011;10137;49.406;19.484;2023-04-01T06:37:01;3.70;;;1.80;;
19951;SDS011;10137;49.406;19.484;2023-04-01T06:39:42;4.80;;;2.20;;
19951;SDS011;10137;49.406;19.484;2023-04-01T06:42:20;2.77;;;1.90;;
19951;SDS011;10137;49.406;19.484;2023-04-01T06:45:05;2.43;;;1.50;;
19951;SDS011;10137;49.406;19.484;2023-04-01T06:47:43;3.87;;;1.90;;
19951;SDS011;10137;49.406;19.484;2023-04-01T06:50:24;3.23;;;1.97;;
19951;SDS011;10137;49.406;19.484;2023-04-01T06:52:58;4.77;;;2.10;;
19951;SDS011;10137;49.406;19.484;2023-04-01T06:55:32;4.10;;;2.20;;
19951;SDS011;10137;49.406;19.484;2023-04-01T06:58:05;3.97;;;2.03;;
19951;SDS011;10137;49.406;19.484;2023-04-01T07:00:40;3.37;;;2.07;;
19951;SDS011;10137;49.406;19.484;2023-04-01T07:03:13;2.87;;;2.10;;
19951;SDS011;10137;49.406;19.484;2023-04-01T07:05:48;3.60;;;2.20;;
19951;SDS011;10137;49.406;19.484;2023-04-01T07:08:16;4.67;;;2.00;;
19951;SDS011;10137;49.406;19.484;2023-04-01T07:10:50;4.20;;;2.00;;
19951;SDS011;10137;49.406;19.484;2023-04-01T07:13:20;4.20;;;1.90;;
19951;SDS011;10137;49.406;19.484;2023-04-01T07:15:54;4.73;;;1.80;;
19951;SDS011;10137;49.406;19.484;2023-04-01T07:18:30;3.70;;;2.00;;
19951;SDS011;10137;49.406;19.484;2023-04-01T07:21:02;3.73;;;1.70;;
19951;SDS011;10137;49.406;19.484;2023-04-01T07:23:32;6.40;;;2.40;;
19951;SDS011;10137;49.406;19.484;2023-04-01T07:26:04;6.30;;;2.27;;
19951;SDS011;10137;49.406;19.484;2023-04-01T07:28:37;3.53;;;1.43;;
19951;SDS011;10137;49.406;19.484;2023-04-01T07:31:07;4.37;;;1.47;;
19951;SDS011;10137;49.406;19.484;2023-04-01T07:33:43;7.13;;;1.97;;
19951;SDS011;10137;49.406;19.484;2023-04-01T07:36:18;5.47;;;2.10;;
19951;SDS011;10137;49.406;19.484;2023-04-01T07:38:54;5.73;;;2.17;;
19951;SDS011;10137;49.406;19.484;2023-04-01T07:41:30;6.53;;;2.20;;
19951;SDS011;10137;49.406;19.484;2023-04-01T07:44:07;4.73;;;1.80;;
19951;SDS011;10137;49.406;19.484;2023-04-01T07:46:52;4.53;;;2.10;;
19951;SDS011;10137;49.406;19.484;2023-04-01T07:49:28;3.10;;;1.87;;
19951;SDS011;10137;49.406;19.484;2023-04-01T07:52:04;8.83;;;2.60;;
19951;SDS011;10137;49.406;19.484;2023-04-01T07:54:37;4.20;;;1.60;;
19951;SDS011;10137;49.406;19.484;2023-04-01T07:57:11;6.30;;;1.90;;
19951;SDS011;10137;49.406;19.484;2023-04-01T07:59:47;5.53;;;1.80;;
19951;SDS011;10137;49.406;19.484;2023-04-01T08:02:26;6.57;;;2.50;;
19951;SDS011;10137;49.406;19.484;2023-04-01T08:05:03;3.60;;;1.63;;
19951;SDS011;10137;49.406;19.484;2023-04-01T08:07:44;2.20;;;1.50;;
19951;SDS011;10137;49.406;19.484;2023-04-01T08:10:18;7.47;;;2.10;;
19951;SDS011;10137;49.406;19.484;2023-04-01T08:12:52;5.17;;;2.23;;
19951;SDS011;10137;49.406;19.484;2023-04-01T08:15:28;4.57;;;2.37;;
19951;SDS011;10137;49.406;19.484;2023-04-01T08:18:06;8.80;;;2.43;;
19951;SDS011;10137;49.406;19.484;2023-04-01T08:20:50;10.17;;;4.37;;
19951;SDS011;10137;49.406;19.484;2023-04-01T08:23:24;6.00;;;2.93;;
19951;SDS011;10137;49.406;19.484;2023-04-01T08:25:56;9.37;;;2.27;;
19951;SDS011;10137;49.406;19.484;2023-04-01T08:28:29;5.47;;;1.80;;
19951;SDS011;10137;49.406;19.484;2023-04-01T08:31:03;10.17;;;2.00;;
19951;SDS011;10137;49.406;19.484;2023-04-01T08:33:33;2.73;;;1.70;;
19951;SDS011;10137;49.406;19.484;2023-04-01T08:36:03;8.40;;;1.73;;
19951;SDS011;10137;49.406;19.484;2023-04-01T08:38:38;6.77;;;1.93;;
19951;SDS011;10137;49.406;19.484;2023-04-01T08:41:15;6.23;;;1.90;;
19951;SDS011;10137;49.406;19.484;2023-04-01T08:44:04;5.83;;;1.60;;
19951;SDS011;10137;49.406;19.484;2023-04-01T08:46:56;7.13;;;2.13;;
19951;SDS011;10137;49.406;19.484;2023-04-01T08:52:44;6.23;;;1.47;;
19951;SDS011;10137;49.406;19.484;2023-04-01T08:55:27;3.07;;;1.23;;
19951;SDS011;10137;49.406;19.484;2023-04-01T08:58:07;4.80;;;1.50;;
19951;SDS011;10137;49.406;19.484;2023-04-01T09:00:48;1.97;;;1.20;;
19951;SDS011;10137;49.406;19.484;2023-04-01T09:06:28;1.43;;;1.13;;
19951;SDS011;10137;49.406;19.484;2023-04-01T09:09:06;3.03;;;0.90;;
19951;SDS011;10137;49.406;19.484;2023-04-01T09:12:15;11.50;;;2.77;;
19951;SDS011;10137;49.406;19.484;2023-04-01T09:15:20;6.33;;;2.20;;
19951;SDS011;10137;49.406;19.484;2023-04-01T09:21:33;4.30;;;1.10;;
19951;SDS011;10137;49.406;19.484;2023-04-01T09:30:24;2.87;;;1.20;;
19951;SDS011;10137;49.406;19.484;2023-04-01T09:36:18;6.93;;;1.40;;
19951;SDS011;10137;49.406;19.484;2023-04-01T09:38:56;4.40;;;1.40;;
19951;SDS011;10137;49.406;19.484;2023-04-01T09:41:28;1.97;;;1.10;;
19951;SDS011;10137;49.406;19.484;2023-04-01T09:44:05;3.23;;;1.33;;
19951;SDS011;10137;49.406;19.484;2023-04-01T09:46:53;2.97;;;1.10;;
19951;SDS011;10137;49.406;19.484;2023-04-01T09:49:37;1.93;;;1.20;;
19951;SDS011;10137;49.406;19.484;2023-04-01T09:52:24;4.03;;;1.40;;
19951;SDS011;10137;49.406;19.484;2023-04-01T09:55:01;3.20;;;1.47;;
19951;SDS011;10137;49.406;19.484;2023-04-01T10:04:17;3.00;;;1.40;;
19951;SDS011;10137;49.406;19.484;2023-04-01T10:13:24;4.20;;;1.60;;
19951;SDS011;10137;49.406;19.484;2023-04-01T10:16:11;3.13;;;1.57;;
19951;SDS011;10137;49.406;19.484;2023-04-01T10:18:57;1.63;;;1.33;;
19951;SDS011;10137;49.406;19.484;2023-04-01T10:21:59;2.33;;;1.30;;
19951;SDS011;10137;49.406;19.484;2023-04-01T10:27:59;4.20;;;1.27;;
19951;SDS011;10137;49.406;19.484;2023-04-01T10:30:56;4.40;;;1.80;;
19951;SDS011;10137;49.406;19.484;2023-04-01T10:34:08;1.57;;;1.30;;
19951;SDS011;10137;49.406;19.484;2023-04-01T10:37:01;1.80;;;1.00;;
19951;SDS011;10137;49.406;19.484;2023-04-01T10:42:56;2.43;;;1.40;;
19951;SDS011;10137;49.406;19.484;2023-04-01T10:46:08;3.00;;;1.40;;
19951;SDS011;10137;49.406;19.484;2023-04-01T10:55:25;2.43;;;1.53;;
19951;SDS011;10137;49.406;19.484;2023-04-01T10:58:22;1.63;;;1.17;;
19951;SDS011;10137;49.406;19.484;2023-04-01T11:01:20;2.03;;;1.50;;
19951;SDS011;10137;49.406;19.484;2023-04-01T11:13:39;4.03;;;1.40;;
19951;SDS011;10137;49.406;19.484;2023-04-01T11:16:33;3.27;;;1.50;;
19951;SDS011;10137;49.406;19.484;2023-04-01T11:19:27;3.63;;;1.40;;
19951;SDS011;10137;49.406;19.484;2023-04-01T11:22:19;2.10;;;1.30;;
19951;SDS011;10137;49.406;19.484;2023-04-01T11:25:05;3.40;;;1.53;;
19951;SDS011;10137;49.406;19.484;2023-04-01T11:28:01;2.83;;;1.60;;
19951;SDS011;10137;49.406;19.484;2023-04-01T11:31:00;1.53;;;1.30;;
19951;SDS011;10137;49.406;19.484;2023-04-01T11:33:36;4.13;;;1.50;;
19951;SDS011;10137;49.406;19.484;2023-04-01T11:36:21;5.00;;;1.80;;
19951;SDS011;10137;49.406;19.484;2023-04-01T11:39:11;4.20;;;1.30;;
19951;SDS011;10137;49.406;19.484;2023-04-01T11:41:49;2.50;;;1.13;;
19951;SDS011;10137;49.406;19.484;2023-04-01T11:44:24;2.73;;;1.30;;
19951;SDS011;10137;49.406;19.484;2023-04-01T11:49:59;2.07;;;1.50;;
19951;SDS011;10137;49.406;19.484;2023-04-01T11:53:18;1.23;;;1.10;;
19951;SDS011;10137;49.406;19.484;2023-04-01T11:55:55;2.07;;;1.57;;
19951;SDS011;10137;49.406;19.484;2023-04-01T12:01:35;2.97;;;0.97;;
19951;SDS011;10137;49.406;19.484;2023-04-01T12:04:21;1.43;;;1.20;;
19951;SDS011;10137;49.406;19.484;2023-04-01T12:07:01;1.97;;;1.17;;
19951;SDS011;10137;49.406;19.484;2023-04-01T12:09:40;5.10;;;1.97;;
19951;SDS011;10137;49.406;19.484;2023-04-01T12:12:16;1.73;;;1.17;;
19951;SDS011;10137;49.406;19.484;2023-04-01T12:14:54;2.20;;;1.33;;
19951;SDS011;10137;49.406;19.484;2023-04-01T12:17:34;4.07;;;1.30;;
19951;SDS011;10137;49.406;19.484;2023-04-01T12:20:16;2.97;;;1.17;;
19951;SDS011;10137;49.406;19.484;2023-04-01T12:22:59;3.97;;;1.80;;
19951;SDS011;10137;49.406;19.484;2023-04-01T12:25:46;3.57;;;1.60;;
19951;SDS011;10137;49.406;19.484;2023-04-01T12:28:29;2.87;;;1.87;;
19951;SDS011;10137;49.406;19.484;2023-04-01T12:34:08;2.53;;;1.10;;
19951;SDS011;10137;49.406;19.484;2023-04-01T12:36:57;2.10;;;1.27;;
19951;SDS011;10137;49.406;19.484;2023-04-01T12:39:37;0.83;;;0.60;;
19951;SDS011;10137;49.406;19.484;2023-04-01T12:42:21;1.13;;;1.03;;
19951;SDS011;10137;49.406;19.484;2023-04-01T12:45:12;5.03;;;1.57;;
19951;SDS011;10137;49.406;19.484;2023-04-01T12:48:01;1.80;;;1.70;;
19951;SDS011;10137;49.406;19.484;2023-04-01T12:51:03;1.77;;;1.50;;
19951;SDS011;10137;49.406;19.484;2023-04-01T12:53:59;2.53;;;1.60;;
19951;SDS011;10137;49.406;19.484;2023-04-01T12:56:42;4.93;;;1.70;;
19951;SDS011;10137;49.406;19.484;2023-04-01T12:59:28;1.60;;;1.10;;
19951;SDS011;10137;49.406;19.484;2023-04-01T13:02:11;1.57;;;1.43;;
19951;SDS011;10137;49.406;19.484;2023-04-01T13:04:51;2.03;;;1.40;;
19951;SDS011;10137;49.406;19.484;2023-04-01T13:07:47;2.60;;;2.17;;
19951;SDS011;10137;49.406;19.484;2023-04-01T13:10:56;3.23;;;1.60;;
19951;SDS011;10137;49.406;19.484;2023-04-01T13:13:39;4.67;;;1.00;;
19951;SDS011;10137;49.406;19.484;2023-04-01T13:16:28;3.43;;;1.20;;
19951;SDS011;10137;49.406;19.484;2023-04-01T13:19:03;30.63;;;4.60;;
19951;SDS011;10137;49.406;19.484;2023-04-01T13:21:36;4.67;;;1.50;;
19951;SDS011;10137;49.406;19.484;2023-04-01T13:24:24;6.73;;;2.03;;
19951;SDS011;10137;49.406;19.484;2023-04-01T13:27:02;1.40;;;1.20;;
19951;SDS011;10137;49.406;19.484;2023-04-01T13:29:36;2.37;;;1.30;;
19951;SDS011;10137;49.406;19.484;2023-04-01T13:32:10;2.33;;;1.43;;
19951;SDS011;10137;49.406;19.484;2023-04-01T13:34:49;3.77;;;2.10;;
19951;SDS011;10137;49.406;19.484;2023-04-01T13:37:34;2.27;;;1.40;;
19951;SDS011;10137;49.406;19.484;2023-04-01T13:43:12;6.07;;;2.13;;
19951;SDS011;10137;49.406;19.484;2023-04-01T13:45:54;4.60;;;1.93;;
19951;SDS011;10137;49.406;19.484;2023-04-01T13:48:47;2.70;;;1.20;;
19951;SDS011;10137;49.406;19.484;2023-04-01T13:51:30;2.70;;;1.97;;
19951;SDS011;10137;49.406;19.484;2023-04-01T13:57:25;4.57;;;2.10;;
19951;SDS011;10137;49.406;19.484;2023-04-01T14:00:03;3.20;;;1.70;;
19951;SDS011;10137;49.406;19.484;2023-04-01T14:02:57;2.63;;;1.90;;
19951;SDS011;10137;49.406;19.484;2023-04-01T14:06:04;2.93;;;2.03;;
19951;SDS011;10137;49.406;19.484;2023-04-01T14:08:40;5.20;;;2.30;;
19951;SDS011;10137;49.406;19.484;2023-04-01T14:11:24;3.93;;;2.50;;
19951;SDS011;10137;49.406;19.484;2023-04-01T14:14:01;3.53;;;2.37;;
19951;SDS011;10137;49.406;19.484;2023-04-01T14:16:39;4.90;;;3.00;;
19951;SDS011;10137;49.406;19.484;2023-04-01T14:19:23;3.97;;;2.10;;
19951;SDS011;10137;49.406;19.484;2023-04-01T14:22:02;3.70;;;1.93;;
19951;SDS011;10137;49.406;19.484;2023-04-01T14:24:43;5.20;;;2.43;;
19951;SDS011;10137;49.406;19.484;2023-04-01T14:27:38;3.53;;;2.30;;
19951;SDS011;10137;49.406;19.484;2023-04-01T14:33:15;2.43;;;2.07;;
19951;SDS011;10137;49.406;19.484;2023-04-01T14:35:56;4.83;;;2.77;;
19951;SDS011;10137;49.406;19.484;2023-04-01T14:38:37;5.17;;;2.63;;
19951;SDS011;10137;49.406;19.484;2023-04-01T14:41:20;3.13;;;2.03;;
19951;SDS011;10137;49.406;19.484;2023-04-01T14:44:00;3.47;;;2.30;;
19951;SDS011;10137;49.406;19.484;2023-04-01T14:46:58;3.63;;;2.60;;
19951;SDS011;10137;49.406;19.484;2023-04-01T14:49:46;4.30;;;2.13;;
19951;SDS011;10137;49.406;19.484;2023-04-01T14:52:16;3.43;;;2.30;;
19951;SDS011;10137;49.406;19.484;2023-04-01T14:54:49;4.73;;;2.10;;
19951;SDS011;10137;49.406;19.484;2023-04-01T14:57:22;2.20;;;1.70;;
19951;SDS011;10137;49.406;19.484;2023-04-01T14:59:51;3.43;;;2.20;;
19951;SDS011;10137;49.406;19.484;2023-04-01T15:02:32;8.43;;;2.23;;
19951;SDS011;10137;49.406;19.484;2023-04-01T15:05:15;7.27;;;2.50;;
19951;SDS011;10137;49.406;19.484;2023-04-01T15:07:56;2.93;;;2.57;;
19951;SDS011;10137;49.406;19.484;2023-04-01T15:10:32;4.80;;;2.90;;
19951;SDS011;10137;49.406;19.484;2023-04-01T15:13:11;3.33;;;2.00;;
19951;SDS011;10137;49.406;19.484;2023-04-01T15:15:48;2.83;;;2.00;;
19951;SDS011;10137;49.406;19.484;2023-04-01T15:18:35;4.70;;;2.47;;
19951;SDS011;10137;49.406;19.484;2023-04-01T15:21:13;3.60;;;2.30;;
19951;SDS011;10137;49.406;19.484;2023-04-01T15:24:02;3.03;;;2.40;;
19951;SDS011;10137;49.406;19.484;2023-04-01T15:26:47;2.53;;;1.90;;
19951;SDS011;10137;49.406;19.484;2023-04-01T15:29:34;2.50;;;1.90;;
19951;SDS011;10137;49.406;19.484;2023-04-01T15:32:16;4.40;;;3.30;;
19951;SDS011;10137;49.406;19.484;2023-04-01T15:34:49;6.87;;;4.30;;
19951;SDS011;10137;49.406;19.484;2023-04-01T15:37:23;6.77;;;4.80;;
19951;SDS011;10137;49.406;19.484;2023-04-01T15:40:02;8.23;;;4.93;;
19951;SDS011;10137;49.406;19.484;2023-04-01T15:42:46;6.63;;;4.40;;
19951;SDS011;10137;49.406;19.484;2023-04-01T15:45:26;6.47;;;4.37;;
19951;SDS011;10137;49.406;19.484;2023-04-01T15:48:21;11.77;;;6.87;;
19951;SDS011;10137;49.406;19.484;2023-04-01T15:51:05;14.20;;;7.60;;
19951;SDS011;10137;49.406;19.484;2023-04-01T15:53:47;13.67;;;7.47;;
19951;SDS011;10137;49.406;19.484;2023-04-01T15:56:41;16.03;;;9.50;;
19951;SDS011;10137;49.406;19.484;2023-04-01T15:59:26;17.60;;;8.83;;
19951;SDS011;10137;49.406;19.484;2023-04-01T16:02:07;14.60;;;9.10;;
19951;SDS011;10137;49.406;19.484;2023-04-01T16:04:46;14.57;;;9.27;;
19951;SDS011;10137;49.406;19.484;2023-04-01T16:07:21;18.23;;;10.30;;
19951;SDS011;10137;49.406;19.484;2023-04-01T16:13:18;26.00;;;12.10;;
19951;SDS011;10137;49.406;19.484;2023-04-01T16:15:57;13.03;;;7.73;;
19951;SDS011;10137;49.406;19.484;2023-04-01T16:18:34;15.63;;;8.67;;
19951;SDS011;10137;49.406;19.484;2023-04-01T16:21:14;23.73;;;13.37;;
19951;SDS011;10137;49.406;19.484;2023-04-01T16:23:59;18.47;;;11.30;;
19951;SDS011;10137;49.406;19.484;2023-04-01T16:26:32;17.27;;;10.00;;
19951;SDS011;10137;49.406;19.484;2023-04-01T16:29:07;18.13;;;9.93;;
19951;SDS011;10137;49.406;19.484;2023-04-01T16:31:42;19.00;;;11.10;;
19951;SDS011;10137;49.406;19.484;2023-04-01T16:34:17;21.77;;;10.87;;
19951;SDS011;10137;49.406;19.484;2023-04-01T16:36:48;15.80;;;9.17;;
19951;SDS011;10137;49.406;19.484;2023-04-01T16:39:29;19.30;;;10.67;;
19951;SDS011;10137;49.406;19.484;2023-04-01T16:42:13;21.70;;;11.93;;
19951;SDS011;10137;49.406;19.484;2023-04-01T16:44:49;21.73;;;13.47;;
19951;SDS011;10137;49.406;19.484;2023-04-01T16:47:20;24.90;;;14.87;;
19951;SDS011;10137;49.406;19.484;2023-04-01T16:49:54;26.27;;;16.43;;
19951;SDS011;10137;49.406;19.484;2023-04-01T16:52:42;23.93;;;13.80;;